Data for 09/26/2016

Time Sea-Level Adjusted Pressure Absolute Pressure Temperature Relative Humidity Dew Point   
(mb) (inHg) (mb) (inHg) (C) (F) (%) (C) (F)
00:05 1030 30.42 859 25.37 11.6 52.9 59 3.8 38.9
00:10 1030 30.42 859 25.37 11.4 52.5 58 3.6 38.4
00:15 1030 30.42 859 25.37 11.5 52.7 58 3.5 38.4
00:20 1030 30.42 859 25.37 11.7 53 57 3.5 38.3
00:25 1030 30.42 859 25.37 11.9 53.4 56 3.5 38.3
00:30 1030 30.42 859 25.37 11.9 53.4 57 3.6 38.5
00:35 1030 30.42 859 25.37 11.8 53.2 57 3.6 38.4
00:40 1030 30.42 859 25.37 11.6 53 59 3.9 39
00:45 1030 30.42 859 25.37 11.3 52.3 60 3.8 38.8
00:50 1030 30.42 859 25.37 11.1 52.1 61 3.9 38.9
00:55 1030 30.42 859 25.37 11 51.7 61 3.8 38.8
01:00 1030 30.42 859 25.37 10.8 51.5 61 3.7 38.7
01:05 1030 30.42 859 25.37 10.8 51.4 61 3.6 38.5
01:10 1030 30.42 859 25.37 10.7 51.3 60 3.4 38.1
01:15 1030 30.42 859 25.37 10.8 51.4 61 3.6 38.4
01:20 1030 30.42 859 25.37 10.7 51.3 60 3.3 38
01:25 1029 30.39 859 25.37 10.6 51.2 60 3.3 37.9
01:30 1029 30.39 859 25.37 10.9 51.5 58 3 37.3
01:35 1029 30.39 859 25.37 11 51.8 60 3.6 38.4
01:40 1029 30.39 859 25.37 10.6 51.1 62 3.7 38.6
01:45 1029 30.39 859 25.37 10.2 50.4 63 3.4 38.1
01:50 1029 30.39 859 25.37 10.3 50.5 63 3.6 38.4
01:55 1029 30.39 859 25.37 9.7 49.5 66 3.6 38.6
02:00 1029 30.39 859 25.37 9.3 48.8 67 3.5 38.3
02:05 1029 30.39 859 25.37 9.4 49 65 3.2 37.7
02:10 1029 30.39 859 25.37 10.2 50.3 61 3.1 37.7
02:15 1029 30.39 859 25.37 10.4 50.7 61 3.3 38
02:20 1029 30.39 859 25.37 10.5 50.9 61 3.4 38.2
02:25 1029 30.39 859 25.37 10.5 51 61 3.3 37.9
02:30 1029 30.39 859 25.37 10.7 51.2 61 3.4 38.1
02:35 1029 30.39 859 25.37 10.6 51 62 3.6 38.4
02:40 1030 30.42 859 25.37 10.3 50.6 62 3.5 38.3
02:45 1030 30.42 859 25.37 10.2 50.3 63 3.4 38.1
02:50 1030 30.42 859 25.37 10 50.1 63 3.4 38.2
02:55 1030 30.42 859 25.37 9.9 49.7 64 3.4 38.1
03:00 1030 30.42 859 25.37 9.9 49.8 63 3.3 37.9
03:05 1030 30.42 859 25.37 10.1 50.2 62 3.3 37.9
03:10 1030 30.42 859 25.37 10.4 50.7 61 3.2 37.8
03:15 1030 30.42 859 25.37 10.6 51 61 3.3 38
03:20 1030 30.42 859 25.37 10.4 50.7 62 3.5 38.4
03:25 1030 30.42 859 25.37 10.3 50.5 62 3.4 38.1
03:30 1030 30.42 859 25.37 10.4 50.6 62 3.4 38.2
03:35 1029 30.39 859 25.37 10.2 50.3 63 3.5 38.3
03:40 1029 30.39 859 25.37 10.1 50.2 61 2.9 37.3
03:45 1029 30.39 859 25.37 10.6 51.1 62 3.7 38.6
03:50 1029 30.39 859 25.37 10.6 51.1 61 3.4 38.2
03:55 1029 30.39 859 25.37 10.4 50.8 62 3.5 38.2
04:00 1029 30.39 858 25.34 10 50.1 64 3.6 38.5
04:05 1029 30.39 859 25.37 9.7 49.4 64 3.3 38
04:10 1029 30.39 859 25.37 9.9 49.9 62 3.1 37.5
04:15 1029 30.39 859 25.37 9.9 49.9 64 3.5 38.2
04:20 1029 30.39 859 25.37 9.5 49 66 3.4 38.2
04:25 1029 30.39 859 25.37 9.1 48.4 66 3.2 37.8
04:30 1029 30.39 859 25.37 9 48.1 67 3.3 37.9
04:35 1029 30.39 859 25.37 9 48.2 66 3.1 37.6
04:40 1029 30.39 859 25.37 9 48.1 67 3.3 37.9
04:45 1029 30.39 859 25.37 9 48.3 67 3.2 37.8
04:50 1029 30.39 859 25.37 9 48.3 67 3.3 38
04:55 1029 30.39 859 25.37 9.1 48.3 67 3.3 38
05:00 1029 30.39 859 25.37 8.9 47.9 67 3 37.5
05:05 1029 30.39 859 25.37 8.9 47.9 68 3.2 37.8
05:10 1029 30.39 859 25.37 8.6 47.5 69 3.3 37.9
05:15 1029 30.39 859 25.37 8.5 47.3 69 3.2 37.7
05:20 1029 30.39 859 25.37 8.5 47.3 69 3.2 37.7
05:25 1029 30.39 859 25.37 8.5 47.3 69 3.1 37.7
05:30 1030 30.42 859 25.37 8.5 47.3 69 3.2 37.8
05:35 1029 30.39 859 25.37 8.5 47.3 69 3.1 37.5
05:40 1029 30.39 859 25.37 8.4 47.2 69 3.2 37.7
05:45 1029 30.39 859 25.37 8.3 47 70 3.3 37.9
05:50 1029 30.39 859 25.37 8.3 46.9 70 3.2 37.8
05:55 1029 30.39 859 25.37 8.1 46.7 71 3.2 37.8
06:00 1029 30.39 859 25.37 8 46.4 71 3 37.3
06:05 1029 30.39 859 25.37 8.2 46.7 70 3 37.5
06:10 1029 30.39 859 25.37 8.3 46.9 70 3.2 37.7
06:15 1029 30.39 859 25.37 8.1 46.6 71 3.1 37.6
06:20 1029 30.39 859 25.37 8.2 46.7 70 3.1 37.5
06:25 1030 30.42 859 25.37 8.3 46.9 70 3.1 37.6
06:30 1030 30.42 859 25.37 8.3 46.9 69 3 37.4
06:35 1030 30.42 859 25.37 8.4 47.2 69 3.1 37.6
06:40 1030 30.42 859 25.37 8.5 47.4 68 2.9 37.2
06:45 1030 30.42 859 25.37 8.5 47.2 69 3.2 37.8
06:50 1030 30.42 859 25.37 8.1 46.6 70 3.1 37.5
06:55 1030 30.42 859 25.37 8 46.3 71 3 37.4
07:00 1030 30.42 859 25.37 7.8 46 72 3.1 37.5
07:05 1030 30.42 859 25.37 7.5 45.5 74 3.2 37.7
07:10 1030 30.42 859 25.37 7.2 45 74 2.9 37.3
07:15 1030 30.42 859 25.37 7.3 45.2 73 2.9 37.2
07:20 1030 30.42 859 25.37 7.5 45.5 72 2.9 37.1
07:25 1030 30.42 859 25.37 7.5 45.4 73 2.9 37.2
07:30 1030 30.42 859 25.37 7.5 45.5 72 2.8 37.1
07:35 1030 30.42 859 25.37 7.8 46 71 2.9 37.3
07:40 1030 30.42 859 25.37 7.9 46.3 70 2.9 37.2
07:45 1030 30.42 859 25.37 8 46.3 71 3 37.3
07:50 1030 30.42 859 25.37 8 46.4 70 2.9 37.3
07:55 1030 30.42 859 25.37 8.3 47 69 3 37.3
08:00 1030 30.42 859 25.37 8.6 47.4 68 2.9 37.3
08:05 1030 30.42 859 25.37 8.8 47.8 68 3.1 37.6
08:10 1030 30.42 859 25.37 8.7 47.6 69 3.2 37.8
08:15 1030 30.42 859 25.37 8.6 47.5 68 3.2 37.7
08:20 1030 30.42 859 25.37 8.7 47.7 67 3.1 37.5
08:25 1030 30.42 859 25.37 9.1 48.4 66 3.1 37.6
08:30 1030 30.42 859 25.37 9.4 48.9 65 3.2 37.8
08:35 1030 30.42 859 25.37 10 50 63 3.3 37.9
08:40 1030 30.42 860 25.4 10.6 51.1 61 3.5 38.2
08:45 1030 30.42 860 25.4 11 51.8 60 3.7 38.6
08:50 1030 30.42 859 25.37 11 51.8 61 3.9 39.1
08:55 1030 30.42 860 25.4 10.7 51.3 63 4 39.2
09:00 1030 30.42 859 25.37 10.8 51.4 62 3.9 38.9
09:05 1030 30.42 859 25.37 11 51.8 61 3.8 38.9
09:10 1030 30.42 859 25.37 11 51.9 61 3.9 39.1
09:15 1030 30.42 859 25.37 10.9 51.7 61 3.7 38.7
09:20 1030 30.42 859 25.37 11.4 52.5 61 4.1 39.4
09:25 1030 30.42 859 25.37 11.9 53.4 60 4.3 39.8
09:30 1030 30.42 859 25.37 12.4 54.2 60 4.8 40.6
09:35 1030 30.42 859 25.37 12.5 54.4 59 4.6 40.3
09:40 1030 30.42 859 25.37 13.4 56 56 4.8 40.6
09:45 1030 30.42 859 25.37 13.9 57.1 55 5.1 41.2
09:50 1030 30.42 859 25.37 14.6 58.3 53 5.2 41.3
09:55 1030 30.42 859 25.37 15.3 59.6 51 5.4 41.8
10:00 1030 30.42 859 25.37 15.2 59.4 51 5.3 41.6
10:05 1030 30.42 859 25.37 15.8 60.5 48 5 41
10:10 1030 30.42 859 25.37 16.3 61.3 46 4.6 40.3
10:15 1030 30.42 859 25.37 16.5 61.7 45 4.6 40.3
10:20 1030 30.42 859 25.37 16.7 62 43 4.2 39.6
10:25 1030 30.42 859 25.37 16.6 61.8 45 4.5 40.2
10:30 1030 30.42 859 25.37 16.6 61.9 42 3.6 38.5
10:35 1030 30.42 859 25.37 16.6 61.9 42 3.9 39
10:40 1030 30.42 859 25.37 16.6 61.9 41 3.4 38.1
10:45 1030 30.42 859 25.37 17.3 63.1 40 3.7 38.6
10:50 1030 30.42 859 25.37 17.6 63.6 38 3.2 37.8
10:55 1030 30.42 859 25.37 17.9 64.2 39 3.7 38.7
11:00 1030 30.42 859 25.37 17.4 63.3 40 3.8 38.9
11:05 1030 30.42 859 25.37 16.7 62.1 42 3.9 39
11:10 1030 30.42 859 25.37 17.2 62.9 42 4.2 39.5
11:15 1030 30.42 859 25.37 16.8 62.2 42 4 39.2
11:20 1030 30.42 859 25.37 17.5 63.4 41 4.3 39.7
11:25 1030 30.42 859 25.37 17.6 63.7 41 4.4 40
11:30 1030 30.42 859 25.37 18 64.4 41 4.6 40.2
11:35 1030 30.42 859 25.37 17.6 63.7 40 3.9 39
11:40 1029 30.39 859 25.37 17.9 64.2 40 4.1 39.4
11:45 1029 30.39 859 25.37 18.3 65 37 3.5 38.4
11:50 1029 30.39 859 25.37 18.7 65.6 36 3.6 38.5
11:55 1029 30.39 859 25.37 18.9 66 33 2.3 36.2
12:00 1029 30.39 858 25.34 19.2 66.5 35 3.6 38.4
12:05 1029 30.39 858 25.34 19.4 67 33 2.9 37.3
12:10 1029 30.39 858 25.34 19 66.3 34 2.8 37.1
12:15 1029 30.39 858 25.34 20 67.9 30 2.1 35.9
12:20 1029 30.39 858 25.34 20.8 69.4 31 3.1 37.5
12:25 1029 30.39 858 25.34 19.8 67.6 33 3.4 38.1
12:30 1029 30.39 858 25.34 18.9 65.9 34 2.9 37.2
12:35 1029 30.39 858 25.34 19.3 66.7 33 2.7 36.8
12:40 1029 30.39 858 25.34 19.8 67.7 32 2.7 36.8
12:45 1029 30.39 858 25.34 20.7 69.2 31 2.9 37.3
12:50 1029 30.39 858 25.34 21.4 70.6 28 2.2 36
12:55 1029 30.39 858 25.34 21.5 70.7 30 3.3 37.9
13:00 1029 30.39 858 25.34 21.5 70.6 29 2.7 36.9
13:05 1029 30.39 858 25.34 21.7 71.1 28 2.9 37.1
13:10 1028 30.36 858 25.34 21.4 70.4 30 3.4 38
13:15 1028 30.36 858 25.34 20.6 69 30 2.4 36.4
13:20 1028 30.36 858 25.34 20.9 69.7 29 2.4 36.4
13:25 1028 30.36 858 25.34 21.9 71.4 27 2.3 36.1
13:30 1028 30.36 858 25.34 22.5 72.5 26 2.5 36.4
13:35 1028 30.36 857 25.31 22.7 72.9 26 2.5 36.4
13:40 1028 30.36 857 25.31 22.7 72.8 27 2.9 37.3
13:45 1028 30.36 857 25.31 22.4 72.3 27 2.6 36.7
13:50 1028 30.36 857 25.31 21.7 71.1 28 2.6 36.7
13:55 1028 30.36 857 25.31 21.7 71.1 27 2.1 35.7
14:00 1028 30.36 857 25.31 21.6 70.8 29 3.1 37.5
14:05 1028 30.36 857 25.31 21.1 70 29 2.5 36.4
14:10 1028 30.36 857 25.31 20.5 68.9 31 2.9 37.2
14:15 1028 30.36 857 25.31 20.7 69.2 30 2.6 36.6
14:20 1028 30.36 857 25.31 21.5 70.7 26 1.3 34.4
14:25 1028 30.36 857 25.31 21.9 71.4 28 2.7 36.8
14:30 1027 30.33 857 25.31 22.4 72.3 26 2.2 35.9
14:35 1027 30.33 857 25.31 22.5 72.6 26 2.3 36.2
14:40 1027 30.33 856 25.28 23.3 74 24 1.6 35
14:45 1027 30.33 856 25.28 23.5 74.2 24 2.2 36
14:50 1027 30.33 856 25.28 23.4 74.1 24 1.8 35.2
14:55 1027 30.33 856 25.28 23.8 74.9 24 2 35.6
15:00 1027 30.33 856 25.28 24.1 75.3 23 2 35.6
15:05 1027 30.33 856 25.28 23.7 74.7 23 1.7 35
15:10 1027 30.33 856 25.28 23.7 74.7 24 2 35.6
15:15 1027 30.33 856 25.28 23.5 74.2 25 2.6 36.6
15:20 1027 30.33 856 25.28 22.7 72.9 25 1.8 35.3
15:25 1027 30.33 856 25.28 22.4 72.4 25 1.8 35.2
15:30 1027 30.33 856 25.28 22.6 72.6 25 1.6 34.9
15:35 1027 30.33 856 25.28 23.8 74.8 23 1.5 34.8
15:40 1027 30.33 856 25.28 24.3 75.7 23 1.8 35.3
15:45 1027 30.33 856 25.28 23.7 74.7 23 1.8 35.2
15:50 1027 30.33 856 25.28 23 73.4 25 2 35.6
15:55 1027 30.33 856 25.28 22.2 71.9 24 0.9 33.6
16:00 1026 30.3 856 25.28 22.3 72.2 24 0.8 33.4
16:05 1026 30.3 856 25.28 22.8 73.1 23 0.7 33.3
16:10 1026 30.3 856 25.28 22.6 72.7 23 0.3 32.6
16:15 1026 30.3 855 25.25 23.1 73.5 24 1.4 34.5
16:20 1026 30.3 855 25.25 23.4 74.1 22 0.5 32.8
16:25 1026 30.3 855 25.25 23.5 74.4 19 -1.1 30
16:30 1026 30.3 855 25.25 24.3 75.7 18 -1 30.2
16:35 1026 30.3 855 25.25 24.3 75.7 19 -0.7 30.7
16:40 1026 30.3 855 25.25 23.3 73.9 21 0 32.1
16:45 1026 30.3 855 25.25 22.8 73 21 -0.5 31
16:50 1026 30.3 855 25.25 22.3 72.1 21 -1.1 30
16:55 1026 30.3 855 25.25 22.3 72.1 20 -1.5 29.2
17:00 1026 30.3 855 25.25 22.5 72.4 21 -0.9 30.3
17:05 1026 30.3 855 25.25 22.6 72.7 20 -1.3 29.7
17:10 1026 30.3 855 25.25 22.7 72.8 20 -1.5 29.3
17:15 1026 30.3 855 25.25 22.6 72.7 20 -1 30.1
17:20 1026 30.3 855 25.25 22.5 72.5 20 -1.4 29.5
17:25 1026 30.3 855 25.25 22.7 72.8 20 -0.9 30.4
17:30 1026 30.3 855 25.25 22.9 73.3 19 -1.8 28.8
17:35 1025 30.27 855 25.25 22.9 73.1 17 -3.1 26.5
17:40 1025 30.27 855 25.25 22.5 72.5 19 -2.3 27.8
17:45 1025 30.27 854 25.22 22.4 72.3 18 -2.7 27.1
17:50 1025 30.27 854 25.22 22.3 72.1 19 -1.9 28.5
17:55 1025 30.27 854 25.22 22 71.7 19 -2.6 27.3
18:00 1025 30.27 854 25.22 21.8 71.3 20 -1.6 29
18:05 1025 30.27 855 25.25 21.9 71.4 20 -2.1 28.2
18:10 1025 30.27 855 25.25 22 71.5 21 -1.3 29.6
18:15 1025 30.27 854 25.22 22.5 72.4 19 -2.3 27.8
18:20 1025 30.27 854 25.22 22.6 72.8 19 -2.1 28.2
18:25 1025 30.27 854 25.22 22.5 72.6 19 -2.3 27.9
18:30 1025 30.27 854 25.22 22.3 72.1 19 -1.9 28.5
18:35 1025 30.27 854 25.22 22 71.6 20 -1.6 29.1
18:40 1025 30.27 854 25.22 21.8 71.2 20 -1.8 28.8
18:45 1025 30.27 854 25.22 21.6 70.9 22 -0.9 30.4
18:50 1025 30.27 854 25.22 21.4 70.6 23 -0.5 31.2
18:55 1025 30.27 854 25.22 21.2 70.2 30 3.1 37.6
19:00 1025 30.27 854 25.22 20.4 68.7 34 4.1 39.4
19:05 1025 30.27 854 25.22 18.8 65.9 35 3.2 37.8
19:10 1025 30.27 854 25.22 18.2 64.7 36 2.8 37.1
19:15 1025 30.27 854 25.22 17.7 63.8 35 2.2 35.9
19:20 1025 30.27 854 25.22 17.2 63 37 2.3 36.2
19:25 1025 30.27 854 25.22 17.1 62.8 38 2.8 37
19:30 1025 30.27 854 25.22 17 62.6 39 3 37.4
19:35 1025 30.27 854 25.22 16.6 61.8 37 1.9 35.4
19:40 1025 30.27 854 25.22 16.1 60.9 37 1.5 34.7
19:45 1025 30.27 854 25.22 15.9 60.6 38 1.6 34.9
19:50 1025 30.27 854 25.22 15.7 60.3 38 1.4 34.5
19:55 1025 30.27 854 25.22 15.6 60.1 39 2 35.5
20:00 1025 30.27 854 25.22 15.4 59.7 44 3.4 38.1
20:05 1025 30.27 854 25.22 15 59 41 1.9 35.4
20:10 1025 30.27 854 25.22 14.6 58.3 42 1.9 35.4
20:15 1025 30.27 854 25.22 14.3 57.7 44 2.2 35.9
20:20 1025 30.27 854 25.22 13.8 56.9 44 1.9 35.4
20:25 1025 30.27 854 25.22 13.8 56.8 41 0.8 33.4
20:30 1025 30.27 854 25.22 14.1 57.4 40 0.7 33.2
20:35 1025 30.27 854 25.22 14.4 57.9 37 0.1 32.3
20:40 1025 30.27 854 25.22 14.3 57.7 37 -0 32
20:45 1025 30.27 854 25.22 14.1 57.4 37 -0.3 31.5
20:50 1025 30.27 854 25.22 14.5 58.1 34 -1 30.2
20:55 1025 30.27 854 25.22 15.2 59.3 33 -0.9 30.3
21:00 1025 30.27 854 25.22 15.6 60 32 -0.8 30.5
21:05 1025 30.27 854 25.22 15.7 60.2 34 -0.2 31.7
21:10 1025 30.27 854 25.22 15.3 59.5 34 -0.3 31.5
21:15 1025 30.27 854 25.22 15.1 59.2 34 -0.5 31.1
21:20 1025 30.27 854 25.22 14.9 58.7 35 -0.5 31
21:25 1025 30.27 854 25.22 14.7 58.4 35 -0.5 31
21:30 1025 30.27 854 25.22 14.5 58.2 37 0.2 32.3
21:35 1025 30.27 854 25.22 14.1 57.4 38 -0.1 31.9
21:40 1025 30.27 854 25.22 14.1 57.3 37 -0.3 31.4
21:45 1025 30.27 854 25.22 14.2 57.5 36 -0.6 30.9
21:50 1025 30.27 854 25.22 14.4 57.9 36 -0.5 31.1
21:55 1025 30.27 854 25.22 14.6 58.3 34 -0.8 30.6
22:00 1025 30.27 854 25.22 14.6 58.4 35 -0.5 31.1
22:05 1025 30.27 854 25.22 14.7 58.5 35 -0.5 31
22:10 1025 30.27 854 25.22 14.5 58.1 37 0.1 32.2
22:15 1025 30.27 854 25.22 14.3 57.7 37 -0.3 31.5
22:20 1024 30.24 854 25.22 14.2 57.5 38 0.2 32.3
22:25 1024 30.24 854 25.22 14 57.2 38 0 32
22:30 1024 30.24 854 25.22 13.9 57.1 37 -0.3 31.5
22:35 1024 30.24 854 25.22 14.2 57.5 37 -0.3 31.4
22:40 1024 30.24 854 25.22 14.3 57.8 36 -0.4 31.4
22:45 1024 30.24 854 25.22 14.1 57.4 39 0.3 32.6
22:50 1024 30.24 854 25.22 13.7 56.7 40 0.5 32.8
22:55 1024 30.24 854 25.22 13.3 56 40 0.1 32.2
23:00 1024 30.24 854 25.22 13.4 56.1 41 0.4 32.6
23:05 1024 30.24 854 25.22 13.4 56.1 41 0.6 33.1
23:10 1024 30.24 854 25.22 13.3 56 41 0.5 33
23:15 1025 30.27 854 25.22 13.2 55.7 43 0.8 33.5
23:20 1024 30.24 854 25.22 13 55.4 42 0.6 33.1
23:25 1025 30.27 854 25.22 13.3 55.9 41 0.3 32.5
23:30 1025 30.27 854 25.22 13.2 55.7 41 0.4 32.7
23:35 1025 30.27 854 25.22 13.4 56 41 0.3 32.5
23:40 1025 30.27 854 25.22 13.4 56 41 0.4 32.7
23:45 1025 30.27 854 25.22 13.4 56 42 0.7 33.3
23:50 1025 30.27 854 25.22 13.3 55.9 41 0.5 32.9
23:55 1025 30.27 854 25.22 13.1 55.6 41 0.1 32.3
24:00 1025 30.27 854 25.22 13.1 55.7 40 0 32.1